sensor_id;sensor_type;location;lat;lon;timestamp;P1;durP1;ratioP1;P2;durP2;ratioP2
10430;SDS011;5262;59.958;17.726;2023-02-03T00:01:51;1.47;;;0.83;;
10430;SDS011;5262;59.958;17.726;2023-02-03T00:04:17;3.80;;;0.90;;
10430;SDS011;5262;59.958;17.726;2023-02-03T00:06:43;1.43;;;0.97;;
10430;SDS011;5262;59.958;17.726;2023-02-03T00:09:09;0.83;;;0.70;;
10430;SDS011;5262;59.958;17.726;2023-02-03T00:11:34;1.23;;;0.70;;
10430;SDS011;5262;59.958;17.726;2023-02-03T00:14:00;5.70;;;1.13;;
10430;SDS011;5262;59.958;17.726;2023-02-03T00:16:26;1.63;;;0.70;;
10430;SDS011;5262;59.958;17.726;2023-02-03T00:18:52;1.73;;;0.80;;
10430;SDS011;5262;59.958;17.726;2023-02-03T00:21:17;2.83;;;1.00;;
10430;SDS011;5262;59.958;17.726;2023-02-03T00:23:44;3.37;;;0.83;;
10430;SDS011;5262;59.958;17.726;2023-02-03T00:26:10;1.83;;;0.93;;
10430;SDS011;5262;59.958;17.726;2023-02-03T00:28:39;1.43;;;0.90;;
10430;SDS011;5262;59.958;17.726;2023-02-03T00:31:05;1.73;;;1.00;;
10430;SDS011;5262;59.958;17.726;2023-02-03T00:33:38;2.33;;;0.60;;
10430;SDS011;5262;59.958;17.726;2023-02-03T00:36:04;1.77;;;0.90;;
10430;SDS011;5262;59.958;17.726;2023-02-03T00:38:31;1.30;;;0.90;;
10430;SDS011;5262;59.958;17.726;2023-02-03T00:40:56;2.60;;;0.90;;
10430;SDS011;5262;59.958;17.726;2023-02-03T00:43:22;1.23;;;0.70;;
10430;SDS011;5262;59.958;17.726;2023-02-03T00:45:47;0.93;;;0.60;;
10430;SDS011;5262;59.958;17.726;2023-02-03T00:48:13;1.60;;;0.90;;
10430;SDS011;5262;59.958;17.726;2023-02-03T00:50:39;4.10;;;0.70;;
10430;SDS011;5262;59.958;17.726;2023-02-03T00:53:04;1.60;;;0.60;;
10430;SDS011;5262;59.958;17.726;2023-02-03T00:55:30;0.93;;;0.57;;
10430;SDS011;5262;59.958;17.726;2023-02-03T00:57:56;0.70;;;0.60;;
10430;SDS011;5262;59.958;17.726;2023-02-03T01:00:21;1.10;;;0.70;;
10430;SDS011;5262;59.958;17.726;2023-02-03T01:02:47;0.70;;;0.50;;
10430;SDS011;5262;59.958;17.726;2023-02-03T01:05:13;1.13;;;0.70;;
10430;SDS011;5262;59.958;17.726;2023-02-03T01:07:38;0.87;;;0.70;;
10430;SDS011;5262;59.958;17.726;2023-02-03T01:10:04;1.43;;;0.77;;
10430;SDS011;5262;59.958;17.726;2023-02-03T01:12:31;1.47;;;0.80;;
10430;SDS011;5262;59.958;17.726;2023-02-03T01:14:57;0.40;;;0.40;;
10430;SDS011;5262;59.958;17.726;2023-02-03T01:17:23;1.80;;;0.70;;
10430;SDS011;5262;59.958;17.726;2023-02-03T01:19:49;1.17;;;0.67;;
10430;SDS011;5262;59.958;17.726;2023-02-03T01:22:15;2.97;;;0.80;;
10430;SDS011;5262;59.958;17.726;2023-02-03T01:24:41;1.27;;;0.73;;
10430;SDS011;5262;59.958;17.726;2023-02-03T01:27:07;1.33;;;0.77;;
10430;SDS011;5262;59.958;17.726;2023-02-03T01:29:32;1.03;;;0.83;;
10430;SDS011;5262;59.958;17.726;2023-02-03T01:31:58;2.00;;;0.80;;
10430;SDS011;5262;59.958;17.726;2023-02-03T01:34:24;0.70;;;0.40;;
10430;SDS011;5262;59.958;17.726;2023-02-03T01:36:49;2.00;;;0.80;;
10430;SDS011;5262;59.958;17.726;2023-02-03T01:39:15;1.63;;;0.80;;
10430;SDS011;5262;59.958;17.726;2023-02-03T01:41:41;0.67;;;0.67;;
10430;SDS011;5262;59.958;17.726;2023-02-03T01:46:57;1.40;;;0.87;;
10430;SDS011;5262;59.958;17.726;2023-02-03T01:49:24;6.33;;;0.90;;
10430;SDS011;5262;59.958;17.726;2023-02-03T01:51:53;1.53;;;0.90;;
10430;SDS011;5262;59.958;17.726;2023-02-03T01:54:21;1.30;;;0.70;;
10430;SDS011;5262;59.958;17.726;2023-02-03T01:56:52;0.60;;;0.50;;
10430;SDS011;5262;59.958;17.726;2023-02-03T01:59:20;3.60;;;1.03;;
10430;SDS011;5262;59.958;17.726;2023-02-03T02:01:47;1.97;;;0.90;;
10430;SDS011;5262;59.958;17.726;2023-02-03T02:04:14;0.90;;;0.73;;
10430;SDS011;5262;59.958;17.726;2023-02-03T02:06:40;3.30;;;0.73;;
10430;SDS011;5262;59.958;17.726;2023-02-03T02:09:06;2.47;;;0.90;;
10430;SDS011;5262;59.958;17.726;2023-02-03T02:11:31;1.60;;;1.00;;
10430;SDS011;5262;59.958;17.726;2023-02-03T02:13:59;2.40;;;0.93;;
10430;SDS011;5262;59.958;17.726;2023-02-03T02:19:37;1.27;;;0.90;;
10430;SDS011;5262;59.958;17.726;2023-02-03T02:22:29;0.90;;;0.60;;
10430;SDS011;5262;59.958;17.726;2023-02-03T02:30:42;1.83;;;0.70;;
10430;SDS011;5262;59.958;17.726;2023-02-03T02:33:25;1.80;;;0.80;;
10430;SDS011;5262;59.958;17.726;2023-02-03T02:38:44;1.37;;;0.80;;
10430;SDS011;5262;59.958;17.726;2023-02-03T02:41:36;1.50;;;0.60;;
10430;SDS011;5262;59.958;17.726;2023-02-03T02:44:15;1.27;;;0.70;;
10430;SDS011;5262;59.958;17.726;2023-02-03T02:46:48;2.43;;;0.70;;
10430;SDS011;5262;59.958;17.726;2023-02-03T02:52:08;1.00;;;0.60;;
10430;SDS011;5262;59.958;17.726;2023-02-03T02:54:38;0.70;;;0.60;;
10430;SDS011;5262;59.958;17.726;2023-02-03T02:57:05;1.43;;;0.70;;
10430;SDS011;5262;59.958;17.726;2023-02-03T02:59:35;1.37;;;0.80;;
10430;SDS011;5262;59.958;17.726;2023-02-03T03:02:01;1.33;;;0.83;;
10430;SDS011;5262;59.958;17.726;2023-02-03T03:04:29;1.50;;;0.90;;
10430;SDS011;5262;59.958;17.726;2023-02-03T03:07:00;2.57;;;0.73;;
10430;SDS011;5262;59.958;17.726;2023-02-03T03:12:06;1.00;;;0.70;;
10430;SDS011;5262;59.958;17.726;2023-02-03T03:14:40;1.80;;;0.80;;
10430;SDS011;5262;59.958;17.726;2023-02-03T03:17:09;0.87;;;0.60;;
10430;SDS011;5262;59.958;17.726;2023-02-03T03:19:38;1.27;;;0.53;;
10430;SDS011;5262;59.958;17.726;2023-02-03T03:22:12;0.90;;;0.70;;
10430;SDS011;5262;59.958;17.726;2023-02-03T03:24:41;1.40;;;0.70;;
10430;SDS011;5262;59.958;17.726;2023-02-03T03:27:14;3.03;;;0.87;;
10430;SDS011;5262;59.958;17.726;2023-02-03T03:29:59;1.73;;;0.70;;
10430;SDS011;5262;59.958;17.726;2023-02-03T03:32:29;3.10;;;1.10;;
10430;SDS011;5262;59.958;17.726;2023-02-03T03:34:57;1.27;;;0.70;;
10430;SDS011;5262;59.958;17.726;2023-02-03T03:37:25;1.47;;;0.60;;
10430;SDS011;5262;59.958;17.726;2023-02-03T03:40:10;2.20;;;0.90;;
10430;SDS011;5262;59.958;17.726;2023-02-03T03:48:18;1.40;;;0.77;;
10430;SDS011;5262;59.958;17.726;2023-02-03T03:50:52;1.50;;;0.70;;
10430;SDS011;5262;59.958;17.726;2023-02-03T03:53:22;1.57;;;0.80;;
10430;SDS011;5262;59.958;17.726;2023-02-03T03:55:51;1.80;;;0.70;;
10430;SDS011;5262;59.958;17.726;2023-02-03T03:58:25;2.17;;;0.80;;
10430;SDS011;5262;59.958;17.726;2023-02-03T04:00:55;1.00;;;0.57;;
10430;SDS011;5262;59.958;17.726;2023-02-03T04:03:24;1.07;;;0.70;;
10430;SDS011;5262;59.958;17.726;2023-02-03T04:06:02;1.10;;;0.70;;
10430;SDS011;5262;59.958;17.726;2023-02-03T04:08:28;1.07;;;0.60;;
10430;SDS011;5262;59.958;17.726;2023-02-03T04:10:54;0.90;;;0.70;;
10430;SDS011;5262;59.958;17.726;2023-02-03T04:13:20;1.63;;;1.00;;
10430;SDS011;5262;59.958;17.726;2023-02-03T04:15:46;3.67;;;0.70;;
10430;SDS011;5262;59.958;17.726;2023-02-03T04:18:13;1.27;;;0.90;;
10430;SDS011;5262;59.958;17.726;2023-02-03T04:20:39;1.87;;;0.97;;
10430;SDS011;5262;59.958;17.726;2023-02-03T04:23:05;1.60;;;0.80;;
10430;SDS011;5262;59.958;17.726;2023-02-03T04:25:32;2.13;;;0.97;;
10430;SDS011;5262;59.958;17.726;2023-02-03T04:27:58;0.93;;;0.60;;
10430;SDS011;5262;59.958;17.726;2023-02-03T04:30:24;4.00;;;0.80;;
10430;SDS011;5262;59.958;17.726;2023-02-03T04:32:50;2.20;;;0.80;;
10430;SDS011;5262;59.958;17.726;2023-02-03T04:35:16;2.17;;;0.90;;
10430;SDS011;5262;59.958;17.726;2023-02-03T04:37:42;1.20;;;0.90;;
10430;SDS011;5262;59.958;17.726;2023-02-03T04:40:08;1.83;;;0.97;;
10430;SDS011;5262;59.958;17.726;2023-02-03T04:42:35;2.03;;;0.90;;
10430;SDS011;5262;59.958;17.726;2023-02-03T04:45:02;1.27;;;0.80;;
10430;SDS011;5262;59.958;17.726;2023-02-03T04:47:29;1.43;;;0.70;;
10430;SDS011;5262;59.958;17.726;2023-02-03T04:49:54;2.00;;;0.80;;
10430;SDS011;5262;59.958;17.726;2023-02-03T04:52:20;2.00;;;0.80;;
10430;SDS011;5262;59.958;17.726;2023-02-03T04:54:45;2.50;;;0.90;;
10430;SDS011;5262;59.958;17.726;2023-02-03T04:57:11;1.10;;;0.83;;
10430;SDS011;5262;59.958;17.726;2023-02-03T04:59:37;0.70;;;0.70;;
10430;SDS011;5262;59.958;17.726;2023-02-03T05:02:02;1.47;;;0.80;;
10430;SDS011;5262;59.958;17.726;2023-02-03T05:04:29;1.20;;;0.70;;
10430;SDS011;5262;59.958;17.726;2023-02-03T05:06:55;0.60;;;0.60;;
10430;SDS011;5262;59.958;17.726;2023-02-03T05:09:21;0.90;;;0.70;;
10430;SDS011;5262;59.958;17.726;2023-02-03T05:11:48;1.33;;;0.80;;
10430;SDS011;5262;59.958;17.726;2023-02-03T05:14:13;1.03;;;0.80;;
10430;SDS011;5262;59.958;17.726;2023-02-03T05:16:39;1.87;;;0.80;;
10430;SDS011;5262;59.958;17.726;2023-02-03T05:19:04;1.67;;;0.83;;
10430;SDS011;5262;59.958;17.726;2023-02-03T05:21:30;3.70;;;0.80;;
10430;SDS011;5262;59.958;17.726;2023-02-03T05:23:56;1.60;;;0.90;;
10430;SDS011;5262;59.958;17.726;2023-02-03T05:26:21;2.17;;;1.13;;
10430;SDS011;5262;59.958;17.726;2023-02-03T05:28:47;3.57;;;1.07;;
10430;SDS011;5262;59.958;17.726;2023-02-03T05:31:13;3.47;;;1.17;;
10430;SDS011;5262;59.958;17.726;2023-02-03T05:33:38;3.83;;;0.97;;
10430;SDS011;5262;59.958;17.726;2023-02-03T05:36:04;1.50;;;0.73;;
10430;SDS011;5262;59.958;17.726;2023-02-03T05:38:30;0.90;;;0.73;;
10430;SDS011;5262;59.958;17.726;2023-02-03T05:40:56;0.87;;;0.73;;
10430;SDS011;5262;59.958;17.726;2023-02-03T05:43:40;1.20;;;0.80;;
10430;SDS011;5262;59.958;17.726;2023-02-03T05:46:06;1.63;;;0.70;;
10430;SDS011;5262;59.958;17.726;2023-02-03T05:48:32;3.73;;;1.30;;
10430;SDS011;5262;59.958;17.726;2023-02-03T05:50:58;3.97;;;1.00;;
10430;SDS011;5262;59.958;17.726;2023-02-03T05:53:24;1.40;;;0.80;;
10430;SDS011;5262;59.958;17.726;2023-02-03T05:55:50;1.13;;;0.80;;
10430;SDS011;5262;59.958;17.726;2023-02-03T05:58:16;1.10;;;0.80;;
10430;SDS011;5262;59.958;17.726;2023-02-03T06:00:41;3.10;;;1.20;;
10430;SDS011;5262;59.958;17.726;2023-02-03T06:03:07;2.53;;;1.00;;
10430;SDS011;5262;59.958;17.726;2023-02-03T06:05:33;4.53;;;0.90;;
10430;SDS011;5262;59.958;17.726;2023-02-03T06:07:59;0.90;;;0.80;;
10430;SDS011;5262;59.958;17.726;2023-02-03T06:10:25;2.57;;;1.03;;
10430;SDS011;5262;59.958;17.726;2023-02-03T06:12:51;1.13;;;0.93;;
10430;SDS011;5262;59.958;17.726;2023-02-03T06:15:17;4.63;;;1.40;;
10430;SDS011;5262;59.958;17.726;2023-02-03T06:17:43;3.30;;;1.20;;
10430;SDS011;5262;59.958;17.726;2023-02-03T06:20:11;2.63;;;1.70;;
10430;SDS011;5262;59.958;17.726;2023-02-03T06:22:38;2.60;;;1.27;;
10430;SDS011;5262;59.958;17.726;2023-02-03T06:25:03;1.97;;;1.20;;
10430;SDS011;5262;59.958;17.726;2023-02-03T06:27:29;2.87;;;1.47;;
10430;SDS011;5262;59.958;17.726;2023-02-03T06:29:55;2.70;;;1.03;;
10430;SDS011;5262;59.958;17.726;2023-02-03T06:32:21;2.27;;;1.20;;
10430;SDS011;5262;59.958;17.726;2023-02-03T06:34:46;2.23;;;1.23;;
10430;SDS011;5262;59.958;17.726;2023-02-03T06:37:12;1.70;;;1.23;;
10430;SDS011;5262;59.958;17.726;2023-02-03T06:39:38;1.97;;;1.10;;
10430;SDS011;5262;59.958;17.726;2023-02-03T06:42:04;2.67;;;1.30;;
10430;SDS011;5262;59.958;17.726;2023-02-03T06:44:30;3.20;;;1.20;;
10430;SDS011;5262;59.958;17.726;2023-02-03T06:46:56;5.93;;;1.30;;
10430;SDS011;5262;59.958;17.726;2023-02-03T06:49:22;3.53;;;1.50;;
10430;SDS011;5262;59.958;17.726;2023-02-03T06:51:48;2.00;;;1.40;;
10430;SDS011;5262;59.958;17.726;2023-02-03T06:54:14;1.83;;;1.30;;
10430;SDS011;5262;59.958;17.726;2023-02-03T06:56:40;1.97;;;1.13;;
10430;SDS011;5262;59.958;17.726;2023-02-03T06:59:05;2.90;;;1.40;;
10430;SDS011;5262;59.958;17.726;2023-02-03T07:01:32;2.00;;;1.20;;
10430;SDS011;5262;59.958;17.726;2023-02-03T07:03:58;5.40;;;1.57;;
10430;SDS011;5262;59.958;17.726;2023-02-03T07:06:24;4.10;;;1.50;;
10430;SDS011;5262;59.958;17.726;2023-02-03T07:08:58;3.80;;;1.70;;
10430;SDS011;5262;59.958;17.726;2023-02-03T07:11:26;2.17;;;1.40;;
10430;SDS011;5262;59.958;17.726;2023-02-03T07:13:52;2.93;;;1.27;;
10430;SDS011;5262;59.958;17.726;2023-02-03T07:16:18;2.60;;;1.60;;
10430;SDS011;5262;59.958;17.726;2023-02-03T07:18:44;2.20;;;1.47;;
10430;SDS011;5262;59.958;17.726;2023-02-03T07:21:10;2.80;;;1.57;;
10430;SDS011;5262;59.958;17.726;2023-02-03T07:23:36;5.10;;;1.40;;
10430;SDS011;5262;59.958;17.726;2023-02-03T07:26:03;3.37;;;1.40;;
10430;SDS011;5262;59.958;17.726;2023-02-03T07:28:33;2.63;;;1.60;;
10430;SDS011;5262;59.958;17.726;2023-02-03T07:30:59;3.10;;;1.30;;
10430;SDS011;5262;59.958;17.726;2023-02-03T07:33:26;3.03;;;1.47;;
10430;SDS011;5262;59.958;17.726;2023-02-03T07:35:53;5.97;;;1.60;;
10430;SDS011;5262;59.958;17.726;2023-02-03T07:38:19;2.60;;;1.37;;
10430;SDS011;5262;59.958;17.726;2023-02-03T07:40:45;2.93;;;1.50;;
10430;SDS011;5262;59.958;17.726;2023-02-03T07:43:11;4.57;;;1.83;;
10430;SDS011;5262;59.958;17.726;2023-02-03T07:45:37;1.80;;;1.30;;
10430;SDS011;5262;59.958;17.726;2023-02-03T07:48:02;4.17;;;1.33;;
10430;SDS011;5262;59.958;17.726;2023-02-03T07:50:28;3.83;;;1.60;;
10430;SDS011;5262;59.958;17.726;2023-02-03T07:52:54;2.77;;;1.20;;
10430;SDS011;5262;59.958;17.726;2023-02-03T07:55:20;2.83;;;1.43;;
10430;SDS011;5262;59.958;17.726;2023-02-03T07:57:47;3.73;;;1.23;;
10430;SDS011;5262;59.958;17.726;2023-02-03T08:00:13;2.23;;;1.47;;
10430;SDS011;5262;59.958;17.726;2023-02-03T08:02:41;3.63;;;1.43;;
10430;SDS011;5262;59.958;17.726;2023-02-03T08:05:07;3.93;;;1.63;;
10430;SDS011;5262;59.958;17.726;2023-02-03T08:07:34;4.10;;;1.70;;
10430;SDS011;5262;59.958;17.726;2023-02-03T08:09:59;7.57;;;2.10;;
10430;SDS011;5262;59.958;17.726;2023-02-03T08:12:25;4.83;;;1.97;;
10430;SDS011;5262;59.958;17.726;2023-02-03T08:14:51;2.60;;;1.57;;
10430;SDS011;5262;59.958;17.726;2023-02-03T08:17:16;7.30;;;1.83;;
10430;SDS011;5262;59.958;17.726;2023-02-03T08:19:42;4.40;;;2.07;;
10430;SDS011;5262;59.958;17.726;2023-02-03T08:22:07;4.53;;;2.17;;
10430;SDS011;5262;59.958;17.726;2023-02-03T08:24:39;3.67;;;1.80;;
10430;SDS011;5262;59.958;17.726;2023-02-03T08:27:14;4.30;;;2.63;;
10430;SDS011;5262;59.958;17.726;2023-02-03T08:29:41;4.00;;;2.17;;
10430;SDS011;5262;59.958;17.726;2023-02-03T08:32:08;6.03;;;1.93;;
10430;SDS011;5262;59.958;17.726;2023-02-03T08:34:38;3.43;;;1.90;;
10430;SDS011;5262;59.958;17.726;2023-02-03T08:37:04;4.97;;;2.47;;
10430;SDS011;5262;59.958;17.726;2023-02-03T08:39:30;6.27;;;2.17;;
10430;SDS011;5262;59.958;17.726;2023-02-03T08:41:57;8.87;;;2.63;;
10430;SDS011;5262;59.958;17.726;2023-02-03T08:44:23;7.13;;;2.57;;
10430;SDS011;5262;59.958;17.726;2023-02-03T08:46:49;6.20;;;2.70;;
10430;SDS011;5262;59.958;17.726;2023-02-03T08:49:16;7.00;;;2.47;;
10430;SDS011;5262;59.958;17.726;2023-02-03T08:51:42;6.60;;;2.63;;
10430;SDS011;5262;59.958;17.726;2023-02-03T08:54:09;6.23;;;2.47;;
10430;SDS011;5262;59.958;17.726;2023-02-03T08:56:35;4.93;;;2.17;;
10430;SDS011;5262;59.958;17.726;2023-02-03T08:59:01;5.00;;;2.30;;
10430;SDS011;5262;59.958;17.726;2023-02-03T09:01:26;7.30;;;2.47;;
10430;SDS011;5262;59.958;17.726;2023-02-03T09:03:52;7.17;;;2.10;;
10430;SDS011;5262;59.958;17.726;2023-02-03T09:06:18;5.03;;;2.43;;
10430;SDS011;5262;59.958;17.726;2023-02-03T09:08:44;6.10;;;2.73;;
10430;SDS011;5262;59.958;17.726;2023-02-03T09:11:11;8.03;;;2.60;;
10430;SDS011;5262;59.958;17.726;2023-02-03T09:13:38;5.93;;;3.10;;
10430;SDS011;5262;59.958;17.726;2023-02-03T09:16:07;6.10;;;2.30;;
10430;SDS011;5262;59.958;17.726;2023-02-03T09:18:33;7.23;;;2.27;;
10430;SDS011;5262;59.958;17.726;2023-02-03T09:21:00;4.17;;;2.23;;
10430;SDS011;5262;59.958;17.726;2023-02-03T09:23:29;3.60;;;2.23;;
10430;SDS011;5262;59.958;17.726;2023-02-03T09:25:55;8.30;;;2.67;;
10430;SDS011;5262;59.958;17.726;2023-02-03T09:28:25;3.67;;;2.03;;
10430;SDS011;5262;59.958;17.726;2023-02-03T09:30:51;6.13;;;2.20;;
10430;SDS011;5262;59.958;17.726;2023-02-03T09:33:16;5.43;;;2.23;;
10430;SDS011;5262;59.958;17.726;2023-02-03T09:35:50;3.90;;;2.20;;
10430;SDS011;5262;59.958;17.726;2023-02-03T09:38:16;6.23;;;2.33;;
10430;SDS011;5262;59.958;17.726;2023-02-03T09:40:42;4.37;;;2.23;;
10430;SDS011;5262;59.958;17.726;2023-02-03T09:43:20;5.10;;;2.37;;
10430;SDS011;5262;59.958;17.726;2023-02-03T09:46:02;3.97;;;2.20;;
10430;SDS011;5262;59.958;17.726;2023-02-03T09:48:36;4.60;;;2.70;;
10430;SDS011;5262;59.958;17.726;2023-02-03T09:51:09;5.97;;;2.47;;
10430;SDS011;5262;59.958;17.726;2023-02-03T09:53:44;3.17;;;1.97;;
10430;SDS011;5262;59.958;17.726;2023-02-03T09:56:32;5.60;;;2.10;;
10430;SDS011;5262;59.958;17.726;2023-02-03T09:59:00;4.70;;;2.23;;
10430;SDS011;5262;59.958;17.726;2023-02-03T10:01:37;3.83;;;2.27;;
10430;SDS011;5262;59.958;17.726;2023-02-03T10:04:31;4.40;;;2.17;;
10430;SDS011;5262;59.958;17.726;2023-02-03T10:07:22;3.20;;;1.73;;
10430;SDS011;5262;59.958;17.726;2023-02-03T10:13:08;2.70;;;1.30;;
10430;SDS011;5262;59.958;17.726;2023-02-03T10:16:03;2.70;;;1.60;;
10430;SDS011;5262;59.958;17.726;2023-02-03T10:18:35;2.93;;;1.50;;
10430;SDS011;5262;59.958;17.726;2023-02-03T10:21:31;2.63;;;1.40;;
10430;SDS011;5262;59.958;17.726;2023-02-03T10:23:58;3.23;;;1.47;;
10430;SDS011;5262;59.958;17.726;2023-02-03T10:26:26;1.97;;;1.40;;
10430;SDS011;5262;59.958;17.726;2023-02-03T10:28:54;2.33;;;1.53;;
10430;SDS011;5262;59.958;17.726;2023-02-03T10:31:42;1.87;;;1.17;;
10430;SDS011;5262;59.958;17.726;2023-02-03T10:34:14;5.07;;;1.20;;
10430;SDS011;5262;59.958;17.726;2023-02-03T10:36:47;2.40;;;1.20;;
10430;SDS011;5262;59.958;17.726;2023-02-03T10:42:07;1.83;;;1.20;;
10430;SDS011;5262;59.958;17.726;2023-02-03T10:47:36;1.60;;;1.30;;
10430;SDS011;5262;59.958;17.726;2023-02-03T10:50:15;1.53;;;1.23;;
10430;SDS011;5262;59.958;17.726;2023-02-03T10:52:45;2.70;;;1.47;;
10430;SDS011;5262;59.958;17.726;2023-02-03T10:57:49;2.07;;;1.23;;
10430;SDS011;5262;59.958;17.726;2023-02-03T11:00:23;2.77;;;1.00;;
10430;SDS011;5262;59.958;17.726;2023-02-03T11:03:03;2.47;;;1.37;;
10430;SDS011;5262;59.958;17.726;2023-02-03T11:05:40;1.87;;;1.20;;
10430;SDS011;5262;59.958;17.726;2023-02-03T11:08:15;1.67;;;1.40;;
10430;SDS011;5262;59.958;17.726;2023-02-03T11:10:41;5.77;;;1.70;;
10430;SDS011;5262;59.958;17.726;2023-02-03T11:13:19;2.53;;;1.20;;
10430;SDS011;5262;59.958;17.726;2023-02-03T11:21:16;2.20;;;1.30;;
10430;SDS011;5262;59.958;17.726;2023-02-03T11:23:47;2.33;;;1.30;;
10430;SDS011;5262;59.958;17.726;2023-02-03T11:26:18;1.40;;;1.10;;
10430;SDS011;5262;59.958;17.726;2023-02-03T11:28:57;3.03;;;1.33;;
10430;SDS011;5262;59.958;17.726;2023-02-03T11:31:25;1.57;;;1.00;;
10430;SDS011;5262;59.958;17.726;2023-02-03T11:33:57;2.20;;;1.20;;
10430;SDS011;5262;59.958;17.726;2023-02-03T11:36:28;1.40;;;1.10;;
10430;SDS011;5262;59.958;17.726;2023-02-03T11:39:55;1.53;;;1.20;;
10430;SDS011;5262;59.958;17.726;2023-02-03T11:41:59;2.00;;;1.00;;
10430;SDS011;5262;59.958;17.726;2023-02-03T11:44:27;2.20;;;1.00;;
10430;SDS011;5262;59.958;17.726;2023-02-03T11:47:16;2.10;;;1.30;;
10430;SDS011;5262;59.958;17.726;2023-02-03T11:49:57;2.00;;;1.17;;
10430;SDS011;5262;59.958;17.726;2023-02-03T11:52:40;2.20;;;1.30;;
10430;SDS011;5262;59.958;17.726;2023-02-03T11:55:35;2.63;;;1.13;;
10430;SDS011;5262;59.958;17.726;2023-02-03T12:01:13;1.47;;;0.90;;
10430;SDS011;5262;59.958;17.726;2023-02-03T12:06:53;1.87;;;1.20;;
10430;SDS011;5262;59.958;17.726;2023-02-03T12:09:51;1.23;;;1.00;;
10430;SDS011;5262;59.958;17.726;2023-02-03T12:15:12;1.13;;;1.00;;
10430;SDS011;5262;59.958;17.726;2023-02-03T12:23:29;2.17;;;1.03;;
10430;SDS011;5262;59.958;17.726;2023-02-03T12:26:08;1.40;;;1.00;;
10430;SDS011;5262;59.958;17.726;2023-02-03T12:31:33;2.57;;;1.10;;
10430;SDS011;5262;59.958;17.726;2023-02-03T12:34:12;1.97;;;1.27;;
10430;SDS011;5262;59.958;17.726;2023-02-03T12:36:52;2.77;;;1.50;;
10430;SDS011;5262;59.958;17.726;2023-02-03T12:42:02;2.90;;;1.40;;
10430;SDS011;5262;59.958;17.726;2023-02-03T12:44:39;4.20;;;1.47;;
10430;SDS011;5262;59.958;17.726;2023-02-03T12:47:13;2.77;;;1.47;;
10430;SDS011;5262;59.958;17.726;2023-02-03T12:57:38;3.07;;;1.37;;
10430;SDS011;5262;59.958;17.726;2023-02-03T13:03:10;3.63;;;1.10;;
10430;SDS011;5262;59.958;17.726;2023-02-03T13:05:42;4.37;;;1.30;;
10430;SDS011;5262;59.958;17.726;2023-02-03T13:08:12;2.50;;;0.97;;
10430;SDS011;5262;59.958;17.726;2023-02-03T13:11:07;1.27;;;1.00;;
10430;SDS011;5262;59.958;17.726;2023-02-03T13:13:41;1.53;;;1.27;;
10430;SDS011;5262;59.958;17.726;2023-02-03T13:16:20;2.00;;;1.40;;
10430;SDS011;5262;59.958;17.726;2023-02-03T13:18:55;2.37;;;1.33;;
10430;SDS011;5262;59.958;17.726;2023-02-03T13:21:26;2.90;;;1.73;;
10430;SDS011;5262;59.958;17.726;2023-02-03T13:23:52;3.27;;;1.63;;
10430;SDS011;5262;59.958;17.726;2023-02-03T13:32:24;5.20;;;1.77;;
10430;SDS011;5262;59.958;17.726;2023-02-03T13:35:10;2.07;;;1.47;;
10430;SDS011;5262;59.958;17.726;2023-02-03T13:40:29;2.33;;;1.40;;
10430;SDS011;5262;59.958;17.726;2023-02-03T13:43:18;3.00;;;1.20;;
10430;SDS011;5262;59.958;17.726;2023-02-03T13:45:51;2.37;;;1.37;;
10430;SDS011;5262;59.958;17.726;2023-02-03T13:48:18;4.80;;;1.70;;
10430;SDS011;5262;59.958;17.726;2023-02-03T13:50:48;1.63;;;1.30;;
10430;SDS011;5262;59.958;17.726;2023-02-03T13:53:25;4.40;;;1.60;;
10430;SDS011;5262;59.958;17.726;2023-02-03T13:55:58;2.50;;;1.43;;
10430;SDS011;5262;59.958;17.726;2023-02-03T13:58:28;3.90;;;1.63;;
10430;SDS011;5262;59.958;17.726;2023-02-03T14:06:54;1.80;;;1.00;;
10430;SDS011;5262;59.958;17.726;2023-02-03T14:08:57;3.77;;;1.60;;
10430;SDS011;5262;59.958;17.726;2023-02-03T14:19:08;2.73;;;0.90;;
10430;SDS011;5262;59.958;17.726;2023-02-03T14:21:37;3.53;;;1.00;;
10430;SDS011;5262;59.958;17.726;2023-02-03T14:24:19;2.50;;;1.00;;
10430;SDS011;5262;59.958;17.726;2023-02-03T14:26:50;3.00;;;1.00;;
10430;SDS011;5262;59.958;17.726;2023-02-03T14:29:25;2.53;;;0.90;;
10430;SDS011;5262;59.958;17.726;2023-02-03T14:32:12;0.83;;;0.63;;
10430;SDS011;5262;59.958;17.726;2023-02-03T14:34:47;2.87;;;0.93;;
10430;SDS011;5262;59.958;17.726;2023-02-03T14:37:22;1.27;;;0.70;;
10430;SDS011;5262;59.958;17.726;2023-02-03T15:00:11;3.13;;;0.93;;
10430;SDS011;5262;59.958;17.726;2023-02-03T15:05:37;4.33;;;0.80;;
10430;SDS011;5262;59.958;17.726;2023-02-03T15:08:03;2.33;;;1.00;;
10430;SDS011;5262;59.958;17.726;2023-02-03T15:10:49;4.10;;;1.00;;
10430;SDS011;5262;59.958;17.726;2023-02-03T15:13:22;1.73;;;0.80;;
10430;SDS011;5262;59.958;17.726;2023-02-03T15:15:54;3.13;;;0.70;;
10430;SDS011;5262;59.958;17.726;2023-02-03T15:21:00;1.80;;;0.57;;
10430;SDS011;5262;59.958;17.726;2023-02-03T15:23:28;1.80;;;0.60;;
10430;SDS011;5262;59.958;17.726;2023-02-03T15:26:01;0.97;;;0.53;;
10430;SDS011;5262;59.958;17.726;2023-02-03T15:28:33;3.07;;;0.67;;
10430;SDS011;5262;59.958;17.726;2023-02-03T15:31:06;2.00;;;0.57;;
10430;SDS011;5262;59.958;17.726;2023-02-03T15:33:40;2.23;;;1.00;;
10430;SDS011;5262;59.958;17.726;2023-02-03T15:36:16;1.17;;;0.63;;
10430;SDS011;5262;59.958;17.726;2023-02-03T15:38:52;1.40;;;0.80;;
10430;SDS011;5262;59.958;17.726;2023-02-03T15:41:24;1.57;;;0.60;;
10430;SDS011;5262;59.958;17.726;2023-02-03T15:43:52;2.07;;;0.50;;
10430;SDS011;5262;59.958;17.726;2023-02-03T15:51:44;1.57;;;1.00;;
10430;SDS011;5262;59.958;17.726;2023-02-03T15:54:18;2.73;;;0.77;;
10430;SDS011;5262;59.958;17.726;2023-02-03T15:56:56;2.20;;;0.67;;
10430;SDS011;5262;59.958;17.726;2023-02-03T15:59:34;1.03;;;0.43;;
10430;SDS011;5262;59.958;17.726;2023-02-03T16:02:13;2.60;;;0.60;;
10430;SDS011;5262;59.958;17.726;2023-02-03T16:04:43;1.30;;;0.73;;
10430;SDS011;5262;59.958;17.726;2023-02-03T16:07:16;2.40;;;0.70;;
10430;SDS011;5262;59.958;17.726;2023-02-03T16:09:51;1.20;;;0.80;;
10430;SDS011;5262;59.958;17.726;2023-02-03T16:12:21;1.97;;;0.73;;
10430;SDS011;5262;59.958;17.726;2023-02-03T16:14:51;2.53;;;0.70;;
10430;SDS011;5262;59.958;17.726;2023-02-03T16:17:22;0.80;;;0.70;;
10430;SDS011;5262;59.958;17.726;2023-02-03T16:19:50;1.20;;;0.70;;
10430;SDS011;5262;59.958;17.726;2023-02-03T16:22:36;1.20;;;0.60;;
10430;SDS011;5262;59.958;17.726;2023-02-03T16:25:13;3.13;;;0.80;;
10430;SDS011;5262;59.958;17.726;2023-02-03T16:27:44;2.20;;;0.63;;
10430;SDS011;5262;59.958;17.726;2023-02-03T16:30:38;1.30;;;0.67;;
10430;SDS011;5262;59.958;17.726;2023-02-03T16:33:34;1.83;;;0.97;;
10430;SDS011;5262;59.958;17.726;2023-02-03T16:36:19;2.70;;;0.60;;
10430;SDS011;5262;59.958;17.726;2023-02-03T16:39:05;2.40;;;1.00;;
10430;SDS011;5262;59.958;17.726;2023-02-03T16:41:53;0.67;;;0.60;;
10430;SDS011;5262;59.958;17.726;2023-02-03T16:44:37;3.13;;;0.93;;
10430;SDS011;5262;59.958;17.726;2023-02-03T16:47:26;1.23;;;0.67;;
10430;SDS011;5262;59.958;17.726;2023-02-03T16:50:21;2.23;;;0.90;;
10430;SDS011;5262;59.958;17.726;2023-02-03T16:53:16;1.53;;;0.80;;
10430;SDS011;5262;59.958;17.726;2023-02-03T16:56:02;2.33;;;0.90;;
10430;SDS011;5262;59.958;17.726;2023-02-03T16:58:29;7.40;;;0.80;;
10430;SDS011;5262;59.958;17.726;2023-02-03T17:00:56;3.13;;;1.70;;
10430;SDS011;5262;59.958;17.726;2023-02-03T17:03:24;3.13;;;1.67;;
10430;SDS011;5262;59.958;17.726;2023-02-03T17:05:52;2.17;;;0.83;;
10430;SDS011;5262;59.958;17.726;2023-02-03T17:08:20;2.47;;;1.07;;
10430;SDS011;5262;59.958;17.726;2023-02-03T17:10:46;1.37;;;0.80;;
10430;SDS011;5262;59.958;17.726;2023-02-03T17:13:12;2.40;;;0.80;;
10430;SDS011;5262;59.958;17.726;2023-02-03T17:15:40;1.93;;;1.17;;